Terminal Aerodrome Forecast
Issued by NWS

Home | Current Version | Previous Version | Text Only | Print | Product List | Glossary On
Versions: 1 2 3 4 5 6 7 8 9 10 11 12 13
000
FTUS46 KSTO 071745
TAFRBL
TAF
KRBL 071745Z 0718/0818 15011KT P6SM BKN250
     FM080400 VRB05KT P6SM FEW050 BKN200
     FM081500 16005KT P6SM VCSH FEW050 BKN250=

USA.gov is the U.S. government's official web portal to all federal, state and local government web resources and services.